sensor_id;sensor_type;location;lat;lon;timestamp;P1;durP1;ratioP1;P2;durP2;ratioP2
67181;SDS011;54114;53.524;49.396;2023-05-07T00:00:27;3.40;;;2.10;;
67181;SDS011;54114;53.524;49.396;2023-05-07T00:02:55;3.28;;;1.87;;
67181;SDS011;54114;53.524;49.396;2023-05-07T00:05:27;2.92;;;1.98;;
67181;SDS011;54114;53.524;49.396;2023-05-07T00:07:56;2.80;;;1.90;;
67181;SDS011;54114;53.524;49.396;2023-05-07T00:10:23;3.67;;;2.08;;
67181;SDS011;54114;53.524;49.396;2023-05-07T00:12:50;4.45;;;1.95;;
67181;SDS011;54114;53.524;49.396;2023-05-07T00:15:19;1.95;;;1.75;;
67181;SDS011;54114;53.524;49.396;2023-05-07T00:17:49;0.47;;;0.47;;
67181;SDS011;54114;53.524;49.396;2023-05-07T00:20:15;3.10;;;1.35;;
67181;SDS011;54114;53.524;49.396;2023-05-07T00:22:45;3.67;;;1.30;;
67181;SDS011;54114;53.524;49.396;2023-05-07T00:25:12;1.85;;;1.27;;
67181;SDS011;54114;53.524;49.396;2023-05-07T00:27:43;2.60;;;1.58;;
67181;SDS011;54114;53.524;49.396;2023-05-07T00:30:12;0.30;;;0.30;;
67181;SDS011;54114;53.524;49.396;2023-05-07T00:32:39;2.35;;;1.30;;
67181;SDS011;54114;53.524;49.396;2023-05-07T00:35:06;4.53;;;1.52;;
67181;SDS011;54114;53.524;49.396;2023-05-07T00:37:36;2.35;;;1.37;;
67181;SDS011;54114;53.524;49.396;2023-05-07T00:40:05;2.30;;;1.35;;
67181;SDS011;54114;53.524;49.396;2023-05-07T00:42:36;4.53;;;1.70;;
67181;SDS011;54114;53.524;49.396;2023-05-07T00:45:02;2.92;;;1.52;;
67181;SDS011;54114;53.524;49.396;2023-05-07T00:47:30;4.22;;;1.58;;
67181;SDS011;54114;53.524;49.396;2023-05-07T00:50:02;3.05;;;1.52;;
67181;SDS011;54114;53.524;49.396;2023-05-07T00:52:29;2.40;;;1.55;;
67181;SDS011;54114;53.524;49.396;2023-05-07T00:54:56;2.00;;;1.33;;
67181;SDS011;54114;53.524;49.396;2023-05-07T00:57:23;2.53;;;1.48;;
67181;SDS011;54114;53.524;49.396;2023-05-07T00:59:51;5.40;;;1.35;;
67181;SDS011;54114;53.524;49.396;2023-05-07T01:02:20;6.87;;;1.73;;
67181;SDS011;54114;53.524;49.396;2023-05-07T01:04:50;3.20;;;1.70;;
67181;SDS011;54114;53.524;49.396;2023-05-07T01:07:16;10.45;;;1.83;;
67181;SDS011;54114;53.524;49.396;2023-05-07T01:09:43;3.15;;;1.80;;
67181;SDS011;54114;53.524;49.396;2023-05-07T01:12:10;5.22;;;1.67;;
67181;SDS011;54114;53.524;49.396;2023-05-07T01:14:39;2.92;;;1.65;;
67181;SDS011;54114;53.524;49.396;2023-05-07T01:17:09;3.87;;;1.58;;
67181;SDS011;54114;53.524;49.396;2023-05-07T01:19:35;5.68;;;1.70;;
67181;SDS011;54114;53.524;49.396;2023-05-07T01:22:03;3.15;;;1.80;;
67181;SDS011;54114;53.524;49.396;2023-05-07T01:24:35;3.08;;;1.62;;
67181;SDS011;54114;53.524;49.396;2023-05-07T01:27:03;3.15;;;1.70;;
67181;SDS011;54114;53.524;49.396;2023-05-07T01:29:30;3.08;;;1.90;;
67181;SDS011;54114;53.524;49.396;2023-05-07T01:32:00;3.53;;;1.60;;
67181;SDS011;54114;53.524;49.396;2023-05-07T01:34:32;2.78;;;1.87;;
67181;SDS011;54114;53.524;49.396;2023-05-07T01:37:02;2.25;;;1.73;;
67181;SDS011;54114;53.524;49.396;2023-05-07T01:39:29;2.62;;;1.95;;
67181;SDS011;54114;53.524;49.396;2023-05-07T01:41:56;2.60;;;2.00;;
67181;SDS011;54114;53.524;49.396;2023-05-07T01:44:25;2.78;;;1.90;;
67181;SDS011;54114;53.524;49.396;2023-05-07T01:46:52;8.13;;;2.00;;
67181;SDS011;54114;53.524;49.396;2023-05-07T01:49:20;0.00;;;0.00;;
67181;SDS011;54114;53.524;49.396;2023-05-07T01:51:47;6.32;;;2.22;;
67181;SDS011;54114;53.524;49.396;2023-05-07T01:54:14;3.67;;;1.75;;
67181;SDS011;54114;53.524;49.396;2023-05-07T01:56:41;1.85;;;1.40;;
67181;SDS011;54114;53.524;49.396;2023-05-07T01:59:08;2.17;;;1.62;;
67181;SDS011;54114;53.524;49.396;2023-05-07T02:01:35;3.50;;;1.67;;
67181;SDS011;54114;53.524;49.396;2023-05-07T02:04:01;2.60;;;1.70;;
67181;SDS011;54114;53.524;49.396;2023-05-07T02:06:28;2.95;;;1.48;;
67181;SDS011;54114;53.524;49.396;2023-05-07T02:08:58;5.97;;;1.80;;
67181;SDS011;54114;53.524;49.396;2023-05-07T02:11:27;2.87;;;1.60;;
67181;SDS011;54114;53.524;49.396;2023-05-07T02:13:53;4.30;;;1.60;;
67181;SDS011;54114;53.524;49.396;2023-05-07T02:16:20;3.20;;;1.62;;
67181;SDS011;54114;53.524;49.396;2023-05-07T02:18:48;6.35;;;1.42;;
67181;SDS011;54114;53.524;49.396;2023-05-07T02:21:15;6.20;;;1.85;;
67181;SDS011;54114;53.524;49.396;2023-05-07T02:23:41;3.47;;;1.70;;
67181;SDS011;54114;53.524;49.396;2023-05-07T02:26:08;0.40;;;0.37;;
67181;SDS011;54114;53.524;49.396;2023-05-07T02:28:36;5.00;;;1.80;;
67181;SDS011;54114;53.524;49.396;2023-05-07T02:31:03;7.93;;;2.10;;
67181;SDS011;54114;53.524;49.396;2023-05-07T02:33:30;5.40;;;1.50;;
67181;SDS011;54114;53.524;49.396;2023-05-07T02:35:59;3.30;;;1.60;;
67181;SDS011;54114;53.524;49.396;2023-05-07T02:38:32;7.93;;;1.55;;
67181;SDS011;54114;53.524;49.396;2023-05-07T02:40:59;3.30;;;1.20;;
67181;SDS011;54114;53.524;49.396;2023-05-07T02:43:26;3.40;;;1.30;;
67181;SDS011;54114;53.524;49.396;2023-05-07T02:48:35;3.30;;;1.58;;
67181;SDS011;54114;53.524;49.396;2023-05-07T02:51:04;5.12;;;1.40;;
67181;SDS011;54114;53.524;49.396;2023-05-07T02:53:31;2.92;;;1.12;;
67181;SDS011;54114;53.524;49.396;2023-05-07T02:55:58;9.85;;;1.62;;
67181;SDS011;54114;53.524;49.396;2023-05-07T02:58:26;1.55;;;1.10;;
67181;SDS011;54114;53.524;49.396;2023-05-07T03:00:53;1.85;;;1.00;;
67181;SDS011;54114;53.524;49.396;2023-05-07T03:03:20;7.05;;;1.70;;
67181;SDS011;54114;53.524;49.396;2023-05-07T03:05:49;6.07;;;1.40;;
67181;SDS011;54114;53.524;49.396;2023-05-07T03:08:16;4.47;;;1.20;;
67181;SDS011;54114;53.524;49.396;2023-05-07T03:10:42;4.12;;;1.25;;
67181;SDS011;54114;53.524;49.396;2023-05-07T03:13:09;2.80;;;1.20;;
67181;SDS011;54114;53.524;49.396;2023-05-07T03:15:36;4.78;;;1.20;;
67181;SDS011;54114;53.524;49.396;2023-05-07T03:18:02;3.05;;;1.10;;
67181;SDS011;54114;53.524;49.396;2023-05-07T03:20:34;3.30;;;1.05;;
67181;SDS011;54114;53.524;49.396;2023-05-07T03:23:01;2.45;;;0.98;;
67181;SDS011;54114;53.524;49.396;2023-05-07T03:25:31;4.35;;;1.37;;
67181;SDS011;54114;53.524;49.396;2023-05-07T03:27:58;3.42;;;1.02;;
67181;SDS011;54114;53.524;49.396;2023-05-07T03:30:27;7.68;;;1.20;;
67181;SDS011;54114;53.524;49.396;2023-05-07T03:33:01;2.90;;;1.10;;
67181;SDS011;54114;53.524;49.396;2023-05-07T03:35:28;2.30;;;0.90;;
67181;SDS011;54114;53.524;49.396;2023-05-07T03:37:54;8.73;;;1.40;;
67181;SDS011;54114;53.524;49.396;2023-05-07T03:40:26;7.57;;;0.90;;
67181;SDS011;54114;53.524;49.396;2023-05-07T03:42:52;5.75;;;1.05;;
67181;SDS011;54114;53.524;49.396;2023-05-07T03:45:22;3.50;;;0.73;;
67181;SDS011;54114;53.524;49.396;2023-05-07T03:47:49;8.38;;;1.33;;
67181;SDS011;54114;53.524;49.396;2023-05-07T03:50:15;8.07;;;0.93;;
67181;SDS011;54114;53.524;49.396;2023-05-07T03:52:42;1.05;;;0.77;;
67181;SDS011;54114;53.524;49.396;2023-05-07T03:55:09;1.60;;;0.70;;
67181;SDS011;54114;53.524;49.396;2023-05-07T03:57:38;2.03;;;0.80;;
67181;SDS011;54114;53.524;49.396;2023-05-07T04:00:07;1.65;;;0.80;;
67181;SDS011;54114;53.524;49.396;2023-05-07T04:02:34;2.15;;;0.80;;
67181;SDS011;54114;53.524;49.396;2023-05-07T04:05:03;4.82;;;0.80;;
67181;SDS011;54114;53.524;49.396;2023-05-07T04:07:33;6.47;;;0.70;;
67181;SDS011;54114;53.524;49.396;2023-05-07T04:10:02;3.40;;;0.75;;
67181;SDS011;54114;53.524;49.396;2023-05-07T04:12:37;1.58;;;0.88;;
67181;SDS011;54114;53.524;49.396;2023-05-07T04:15:07;2.95;;;0.82;;
67181;SDS011;54114;53.524;49.396;2023-05-07T04:17:38;0.90;;;0.50;;
67181;SDS011;54114;53.524;49.396;2023-05-07T04:20:09;2.10;;;0.70;;
67181;SDS011;54114;53.524;49.396;2023-05-07T04:22:44;2.00;;;0.70;;
67181;SDS011;54114;53.524;49.396;2023-05-07T04:25:13;1.23;;;0.60;;
67181;SDS011;54114;53.524;49.396;2023-05-07T04:27:39;4.22;;;0.90;;
67181;SDS011;54114;53.524;49.396;2023-05-07T04:30:13;4.03;;;0.70;;
67181;SDS011;54114;53.524;49.396;2023-05-07T04:32:42;1.87;;;0.80;;
67181;SDS011;54114;53.524;49.396;2023-05-07T04:35:13;4.82;;;0.80;;
67181;SDS011;54114;53.524;49.396;2023-05-07T04:37:42;1.60;;;0.70;;
67181;SDS011;54114;53.524;49.396;2023-05-07T04:40:12;2.25;;;0.60;;
67181;SDS011;54114;53.524;49.396;2023-05-07T04:42:43;0.73;;;0.55;;
67181;SDS011;54114;53.524;49.396;2023-05-07T04:45:12;6.45;;;0.50;;
67181;SDS011;54114;53.524;49.396;2023-05-07T04:47:40;0.55;;;0.40;;
67181;SDS011;54114;53.524;49.396;2023-05-07T04:50:09;2.42;;;0.60;;
67181;SDS011;54114;53.524;49.396;2023-05-07T04:52:42;0.98;;;0.65;;
67181;SDS011;54114;53.524;49.396;2023-05-07T04:55:11;3.10;;;0.52;;
67181;SDS011;54114;53.524;49.396;2023-05-07T04:57:43;2.62;;;0.70;;
67181;SDS011;54114;53.524;49.396;2023-05-07T05:00:16;0.75;;;0.50;;
67181;SDS011;54114;53.524;49.396;2023-05-07T05:02:45;2.28;;;0.57;;
67181;SDS011;54114;53.524;49.396;2023-05-07T05:05:14;6.05;;;0.50;;
67181;SDS011;54114;53.524;49.396;2023-05-07T05:07:40;0.55;;;0.50;;
67181;SDS011;54114;53.524;49.396;2023-05-07T05:10:07;1.83;;;0.50;;
67181;SDS011;54114;53.524;49.396;2023-05-07T05:12:34;1.98;;;0.70;;
67181;SDS011;54114;53.524;49.396;2023-05-07T05:15:06;4.25;;;0.70;;
67181;SDS011;54114;53.524;49.396;2023-05-07T05:17:39;4.20;;;0.50;;
67181;SDS011;54114;53.524;49.396;2023-05-07T05:20:10;4.57;;;0.80;;
67181;SDS011;54114;53.524;49.396;2023-05-07T05:22:42;3.75;;;0.55;;
67181;SDS011;54114;53.524;49.396;2023-05-07T05:25:13;4.03;;;0.50;;
67181;SDS011;54114;53.524;49.396;2023-05-07T05:27:43;1.30;;;0.80;;
67181;SDS011;54114;53.524;49.396;2023-05-07T05:30:12;2.85;;;0.60;;
67181;SDS011;54114;53.524;49.396;2023-05-07T05:32:47;3.78;;;0.60;;
67181;SDS011;54114;53.524;49.396;2023-05-07T05:35:16;0.77;;;0.43;;
67181;SDS011;54114;53.524;49.396;2023-05-07T05:37:47;3.35;;;0.60;;
67181;SDS011;54114;53.524;49.396;2023-05-07T05:40:19;2.92;;;0.57;;
67181;SDS011;54114;53.524;49.396;2023-05-07T05:42:47;1.05;;;0.45;;
67181;SDS011;54114;53.524;49.396;2023-05-07T05:45:14;2.08;;;0.62;;
67181;SDS011;54114;53.524;49.396;2023-05-07T05:47:43;1.27;;;0.70;;
67181;SDS011;54114;53.524;49.396;2023-05-07T05:50:15;9.27;;;0.52;;
67181;SDS011;54114;53.524;49.396;2023-05-07T05:52:44;1.17;;;0.40;;
67181;SDS011;54114;53.524;49.396;2023-05-07T05:55:10;0.52;;;0.50;;
67181;SDS011;54114;53.524;49.396;2023-05-07T05:57:37;0.70;;;0.32;;
67181;SDS011;54114;53.524;49.396;2023-05-07T06:00:06;0.65;;;0.37;;
67181;SDS011;54114;53.524;49.396;2023-05-07T06:02:34;1.10;;;0.47;;
67181;SDS011;54114;53.524;49.396;2023-05-07T06:05:03;2.92;;;0.50;;
67181;SDS011;54114;53.524;49.396;2023-05-07T06:07:33;2.50;;;0.50;;
67181;SDS011;54114;53.524;49.396;2023-05-07T06:10:02;2.22;;;0.57;;
67181;SDS011;54114;53.524;49.396;2023-05-07T06:12:29;1.27;;;0.50;;
67181;SDS011;54114;53.524;49.396;2023-05-07T06:14:58;1.37;;;0.82;;
67181;SDS011;54114;53.524;49.396;2023-05-07T06:17:30;0.90;;;0.40;;
67181;SDS011;54114;53.524;49.396;2023-05-07T06:19:56;2.92;;;0.60;;
67181;SDS011;54114;53.524;49.396;2023-05-07T06:22:27;1.48;;;0.50;;
67181;SDS011;54114;53.524;49.396;2023-05-07T06:24:59;2.28;;;0.50;;
67181;SDS011;54114;53.524;49.396;2023-05-07T06:27:29;4.10;;;0.50;;
67181;SDS011;54114;53.524;49.396;2023-05-07T06:30:01;4.50;;;0.70;;
67181;SDS011;54114;53.524;49.396;2023-05-07T06:32:27;2.65;;;0.60;;
67181;SDS011;54114;53.524;49.396;2023-05-07T06:34:59;0.70;;;0.40;;
67181;SDS011;54114;53.524;49.396;2023-05-07T06:37:26;1.83;;;0.50;;
67181;SDS011;54114;53.524;49.396;2023-05-07T06:39:52;0.62;;;0.40;;
67181;SDS011;54114;53.524;49.396;2023-05-07T06:42:19;1.33;;;0.50;;
67181;SDS011;54114;53.524;49.396;2023-05-07T06:44:46;6.47;;;0.50;;
67181;SDS011;54114;53.524;49.396;2023-05-07T06:47:12;2.62;;;0.50;;
67181;SDS011;54114;53.524;49.396;2023-05-07T06:49:42;3.70;;;0.60;;
67181;SDS011;54114;53.524;49.396;2023-05-07T06:52:11;8.38;;;0.80;;
67181;SDS011;54114;53.524;49.396;2023-05-07T06:54:40;0.20;;;0.20;;
67181;SDS011;54114;53.524;49.396;2023-05-07T06:57:06;1.77;;;0.50;;
67181;SDS011;54114;53.524;49.396;2023-05-07T06:59:36;5.57;;;0.30;;
67181;SDS011;54114;53.524;49.396;2023-05-07T07:02:03;1.52;;;0.47;;
67181;SDS011;54114;53.524;49.396;2023-05-07T07:04:34;0.70;;;0.37;;
67181;SDS011;54114;53.524;49.396;2023-05-07T07:07:03;5.05;;;0.47;;
67181;SDS011;54114;53.524;49.396;2023-05-07T07:09:29;0.50;;;0.25;;
67181;SDS011;54114;53.524;49.396;2023-05-07T07:11:59;1.20;;;0.32;;
67181;SDS011;54114;53.524;49.396;2023-05-07T07:14:28;3.72;;;0.40;;
67181;SDS011;54114;53.524;49.396;2023-05-07T07:16:54;6.03;;;0.40;;
67181;SDS011;54114;53.524;49.396;2023-05-07T07:19:23;7.47;;;0.40;;
67181;SDS011;54114;53.524;49.396;2023-05-07T07:21:52;0.55;;;0.25;;
67181;SDS011;54114;53.524;49.396;2023-05-07T07:24:19;1.80;;;0.45;;
67181;SDS011;54114;53.524;49.396;2023-05-07T07:26:48;0.40;;;0.30;;
67181;SDS011;54114;53.524;49.396;2023-05-07T07:29:20;1.70;;;0.45;;
67181;SDS011;54114;53.524;49.396;2023-05-07T07:31:51;1.25;;;0.37;;
67181;SDS011;54114;53.524;49.396;2023-05-07T07:34:21;2.22;;;0.20;;
67181;SDS011;54114;53.524;49.396;2023-05-07T07:36:50;2.85;;;0.50;;
67181;SDS011;54114;53.524;49.396;2023-05-07T07:39:16;1.85;;;0.50;;
67181;SDS011;54114;53.524;49.396;2023-05-07T07:41:45;0.35;;;0.28;;
67181;SDS011;54114;53.524;49.396;2023-05-07T07:44:14;0.68;;;0.30;;
67181;SDS011;54114;53.524;49.396;2023-05-07T07:46:46;2.00;;;0.52;;
67181;SDS011;54114;53.524;49.396;2023-05-07T07:49:12;2.00;;;0.30;;
67181;SDS011;54114;53.524;49.396;2023-05-07T07:51:40;1.00;;;0.50;;
67181;SDS011;54114;53.524;49.396;2023-05-07T07:54:07;2.45;;;0.50;;
67181;SDS011;54114;53.524;49.396;2023-05-07T07:56:35;2.53;;;0.50;;
67181;SDS011;54114;53.524;49.396;2023-05-07T07:59:02;1.87;;;0.40;;
67181;SDS011;54114;53.524;49.396;2023-05-07T08:01:29;1.10;;;0.50;;
67181;SDS011;54114;53.524;49.396;2023-05-07T08:03:56;0.60;;;0.35;;
67181;SDS011;54114;53.524;49.396;2023-05-07T08:06:30;8.23;;;0.50;;
67181;SDS011;54114;53.524;49.396;2023-05-07T08:09:02;0.40;;;0.30;;
67181;SDS011;54114;53.524;49.396;2023-05-07T08:11:32;0.80;;;0.40;;
67181;SDS011;54114;53.524;49.396;2023-05-07T08:14:01;2.42;;;0.40;;
67181;SDS011;54114;53.524;49.396;2023-05-07T08:16:28;2.47;;;0.32;;
67181;SDS011;54114;53.524;49.396;2023-05-07T08:18:59;1.75;;;0.90;;
67181;SDS011;54114;53.524;49.396;2023-05-07T08:21:26;0.88;;;0.40;;
67181;SDS011;54114;53.524;49.396;2023-05-07T08:23:55;2.95;;;1.30;;
67181;SDS011;54114;53.524;49.396;2023-05-07T08:26:22;1.15;;;0.43;;
67181;SDS011;54114;53.524;49.396;2023-05-07T08:28:51;1.40;;;0.52;;
67181;SDS011;54114;53.524;49.396;2023-05-07T08:31:17;8.88;;;0.80;;
67181;SDS011;54114;53.524;49.396;2023-05-07T08:33:44;2.42;;;1.10;;
67181;SDS011;54114;53.524;49.396;2023-05-07T08:36:10;1.37;;;0.50;;
67181;SDS011;54114;53.524;49.396;2023-05-07T08:38:37;2.08;;;0.50;;
67181;SDS011;54114;53.524;49.396;2023-05-07T08:41:10;1.73;;;0.40;;
67181;SDS011;54114;53.524;49.396;2023-05-07T08:43:38;1.65;;;0.50;;
67181;SDS011;54114;53.524;49.396;2023-05-07T08:46:09;2.05;;;0.60;;
67181;SDS011;54114;53.524;49.396;2023-05-07T08:48:47;0.55;;;0.30;;
67181;SDS011;54114;53.524;49.396;2023-05-07T08:51:18;5.78;;;0.45;;
67181;SDS011;54114;53.524;49.396;2023-05-07T08:53:47;4.07;;;0.43;;
67181;SDS011;54114;53.524;49.396;2023-05-07T08:56:15;5.03;;;0.50;;
67181;SDS011;54114;53.524;49.396;2023-05-07T08:58:43;1.35;;;0.50;;
67181;SDS011;54114;53.524;49.396;2023-05-07T09:01:12;6.05;;;0.60;;
67181;SDS011;54114;53.524;49.396;2023-05-07T09:03:46;2.87;;;0.50;;
67181;SDS011;54114;53.524;49.396;2023-05-07T09:08:49;1.67;;;0.65;;
67181;SDS011;54114;53.524;49.396;2023-05-07T09:11:19;5.60;;;0.47;;
67181;SDS011;54114;53.524;49.396;2023-05-07T09:13:53;2.95;;;0.77;;
67181;SDS011;54114;53.524;49.396;2023-05-07T09:16:26;0.55;;;0.40;;
67181;SDS011;54114;53.524;49.396;2023-05-07T09:18:57;4.18;;;0.43;;
67181;SDS011;54114;53.524;49.396;2023-05-07T09:21:28;1.67;;;0.70;;
67181;SDS011;54114;53.524;49.396;2023-05-07T09:23:57;1.73;;;0.60;;
67181;SDS011;54114;53.524;49.396;2023-05-07T09:26:28;4.28;;;0.55;;
67181;SDS011;54114;53.524;49.396;2023-05-07T09:28:59;3.47;;;0.75;;
67181;SDS011;54114;53.524;49.396;2023-05-07T09:31:35;0.95;;;0.52;;
67181;SDS011;54114;53.524;49.396;2023-05-07T09:34:05;1.73;;;0.75;;
67181;SDS011;54114;53.524;49.396;2023-05-07T09:36:39;1.58;;;0.70;;
67181;SDS011;54114;53.524;49.396;2023-05-07T09:39:06;2.58;;;0.85;;
67181;SDS011;54114;53.524;49.396;2023-05-07T09:41:43;1.85;;;0.60;;
67181;SDS011;54114;53.524;49.396;2023-05-07T09:44:15;3.00;;;0.70;;
67181;SDS011;54114;53.524;49.396;2023-05-07T09:46:51;2.08;;;0.80;;
67181;SDS011;54114;53.524;49.396;2023-05-07T09:49:22;3.30;;;0.70;;
67181;SDS011;54114;53.524;49.396;2023-05-07T09:51:55;1.60;;;0.70;;
67181;SDS011;54114;53.524;49.396;2023-05-07T09:54:29;1.77;;;0.68;;
67181;SDS011;54114;53.524;49.396;2023-05-07T09:57:01;0.47;;;0.40;;
67181;SDS011;54114;53.524;49.396;2023-05-07T09:59:29;3.08;;;0.70;;
67181;SDS011;54114;53.524;49.396;2023-05-07T10:01:58;0.93;;;0.50;;
67181;SDS011;54114;53.524;49.396;2023-05-07T10:04:26;1.60;;;0.57;;
67181;SDS011;54114;53.524;49.396;2023-05-07T10:06:54;2.47;;;0.62;;
67181;SDS011;54114;53.524;49.396;2023-05-07T10:09:21;1.90;;;0.60;;
67181;SDS011;54114;53.524;49.396;2023-05-07T10:11:49;0.60;;;0.60;;
67181;SDS011;54114;53.524;49.396;2023-05-07T10:14:19;2.58;;;0.70;;
67181;SDS011;54114;53.524;49.396;2023-05-07T10:16:49;2.50;;;0.77;;
67181;SDS011;54114;53.524;49.396;2023-05-07T10:19:28;3.58;;;0.50;;
67181;SDS011;54114;53.524;49.396;2023-05-07T10:22:02;1.67;;;0.77;;
67181;SDS011;54114;53.524;49.396;2023-05-07T10:24:36;0.90;;;0.60;;
67181;SDS011;54114;53.524;49.396;2023-05-07T10:27:07;4.78;;;0.62;;
67181;SDS011;54114;53.524;49.396;2023-05-07T10:29:52;4.60;;;0.60;;
67181;SDS011;54114;53.524;49.396;2023-05-07T10:32:37;0.88;;;0.60;;
67181;SDS011;54114;53.524;49.396;2023-05-07T10:35:32;1.17;;;0.60;;
67181;SDS011;54114;53.524;49.396;2023-05-07T10:38:10;1.20;;;0.70;;
67181;SDS011;54114;53.524;49.396;2023-05-07T10:40:39;3.10;;;0.70;;
67181;SDS011;54114;53.524;49.396;2023-05-07T10:43:08;1.40;;;0.50;;
67181;SDS011;54114;53.524;49.396;2023-05-07T10:45:39;1.52;;;0.62;;
67181;SDS011;54114;53.524;49.396;2023-05-07T10:48:15;2.30;;;0.68;;
67181;SDS011;54114;53.524;49.396;2023-05-07T10:50:45;1.37;;;0.60;;
67181;SDS011;54114;53.524;49.396;2023-05-07T10:55:45;3.65;;;0.50;;
67181;SDS011;54114;53.524;49.396;2023-05-07T11:00:47;1.75;;;0.60;;
67181;SDS011;54114;53.524;49.396;2023-05-07T11:03:15;0.82;;;0.68;;
67181;SDS011;54114;53.524;49.396;2023-05-07T11:05:41;0.70;;;0.50;;
67181;SDS011;54114;53.524;49.396;2023-05-07T11:08:09;1.62;;;0.70;;
67181;SDS011;54114;53.524;49.396;2023-05-07T11:10:48;2.92;;;0.62;;
67181;SDS011;54114;53.524;49.396;2023-05-07T11:16:22;2.22;;;0.70;;
67181;SDS011;54114;53.524;49.396;2023-05-07T11:18:55;1.08;;;0.62;;
67181;SDS011;54114;53.524;49.396;2023-05-07T11:21:37;1.42;;;0.55;;
67181;SDS011;54114;53.524;49.396;2023-05-07T11:24:08;1.95;;;0.60;;
67181;SDS011;54114;53.524;49.396;2023-05-07T11:26:47;3.33;;;0.50;;
67181;SDS011;54114;53.524;49.396;2023-05-07T11:29:19;1.00;;;0.55;;
67181;SDS011;54114;53.524;49.396;2023-05-07T11:31:53;2.80;;;0.40;;
67181;SDS011;54114;53.524;49.396;2023-05-07T11:34:21;3.10;;;0.70;;
67181;SDS011;54114;53.524;49.396;2023-05-07T11:36:50;0.68;;;0.40;;
67181;SDS011;54114;53.524;49.396;2023-05-07T11:39:27;1.35;;;0.50;;
67181;SDS011;54114;53.524;49.396;2023-05-07T11:41:56;4.45;;;0.80;;
67181;SDS011;54114;53.524;49.396;2023-05-07T11:44:23;3.60;;;0.80;;
67181;SDS011;54114;53.524;49.396;2023-05-07T11:47:11;1.00;;;0.70;;
67181;SDS011;54114;53.524;49.396;2023-05-07T11:49:45;1.83;;;0.73;;
67181;SDS011;54114;53.524;49.396;2023-05-07T11:52:20;4.53;;;0.52;;
67181;SDS011;54114;53.524;49.396;2023-05-07T11:54:55;1.17;;;0.62;;
67181;SDS011;54114;53.524;49.396;2023-05-07T11:57:32;5.00;;;0.50;;
67181;SDS011;54114;53.524;49.396;2023-05-07T12:00:06;1.08;;;0.80;;
67181;SDS011;54114;53.524;49.396;2023-05-07T12:02:34;1.98;;;0.40;;
67181;SDS011;54114;53.524;49.396;2023-05-07T12:05:01;2.10;;;0.50;;
67181;SDS011;54114;53.524;49.396;2023-05-07T12:07:32;2.12;;;0.50;;
67181;SDS011;54114;53.524;49.396;2023-05-07T12:10:06;1.08;;;0.55;;
67181;SDS011;54114;53.524;49.396;2023-05-07T12:12:45;2.30;;;0.52;;
67181;SDS011;54114;53.524;49.396;2023-05-07T12:15:17;1.67;;;0.50;;
67181;SDS011;54114;53.524;49.396;2023-05-07T12:17:48;3.87;;;0.53;;
67181;SDS011;54114;53.524;49.396;2023-05-07T12:20:15;3.37;;;0.45;;
67181;SDS011;54114;53.524;49.396;2023-05-07T12:22:48;0.93;;;0.50;;
67181;SDS011;54114;53.524;49.396;2023-05-07T12:25:19;4.65;;;0.60;;
67181;SDS011;54114;53.524;49.396;2023-05-07T12:27:53;2.05;;;0.70;;
67181;SDS011;54114;53.524;49.396;2023-05-07T12:30:20;1.00;;;0.40;;
67181;SDS011;54114;53.524;49.396;2023-05-07T12:32:47;5.32;;;0.70;;
67181;SDS011;54114;53.524;49.396;2023-05-07T12:35:28;2.90;;;0.50;;
67181;SDS011;54114;53.524;49.396;2023-05-07T12:38:04;0.85;;;0.40;;
67181;SDS011;54114;53.524;49.396;2023-05-07T12:40:41;2.05;;;0.40;;
67181;SDS011;54114;53.524;49.396;2023-05-07T12:43:24;1.25;;;0.60;;
67181;SDS011;54114;53.524;49.396;2023-05-07T12:45:59;0.90;;;0.40;;
67181;SDS011;54114;53.524;49.396;2023-05-07T12:48:31;0.50;;;0.50;;
67181;SDS011;54114;53.524;49.396;2023-05-07T12:51:01;1.05;;;0.55;;
67181;SDS011;54114;53.524;49.396;2023-05-07T12:53:38;0.93;;;0.50;;
67181;SDS011;54114;53.524;49.396;2023-05-07T12:56:15;1.58;;;0.70;;
67181;SDS011;54114;53.524;49.396;2023-05-07T12:58:44;2.45;;;0.60;;
67181;SDS011;54114;53.524;49.396;2023-05-07T13:01:10;1.55;;;0.37;;
67181;SDS011;54114;53.524;49.396;2023-05-07T13:03:40;2.70;;;1.00;;
67181;SDS011;54114;53.524;49.396;2023-05-07T13:06:09;3.60;;;0.60;;
67181;SDS011;54114;53.524;49.396;2023-05-07T13:08:38;2.05;;;0.45;;
67181;SDS011;54114;53.524;49.396;2023-05-07T13:11:08;4.22;;;0.50;;
67181;SDS011;54114;53.524;49.396;2023-05-07T13:13:37;0.95;;;0.40;;
67181;SDS011;54114;53.524;49.396;2023-05-07T13:16:10;2.97;;;0.60;;
67181;SDS011;54114;53.524;49.396;2023-05-07T13:18:40;3.75;;;0.90;;
67181;SDS011;54114;53.524;49.396;2023-05-07T13:21:08;1.95;;;0.70;;
67181;SDS011;54114;53.524;49.396;2023-05-07T13:23:40;0.50;;;0.40;;
67181;SDS011;54114;53.524;49.396;2023-05-07T13:26:09;1.45;;;0.60;;
67181;SDS011;54114;53.524;49.396;2023-05-07T13:28:41;1.02;;;0.60;;
67181;SDS011;54114;53.524;49.396;2023-05-07T13:33:42;1.40;;;0.77;;
67181;SDS011;54114;53.524;49.396;2023-05-07T13:36:12;1.12;;;0.50;;
67181;SDS011;54114;53.524;49.396;2023-05-07T13:38:39;3.87;;;0.80;;
67181;SDS011;54114;53.524;49.396;2023-05-07T13:41:12;1.27;;;0.60;;
67181;SDS011;54114;53.524;49.396;2023-05-07T13:43:39;4.05;;;0.68;;
67181;SDS011;54114;53.524;49.396;2023-05-07T13:46:08;2.12;;;0.80;;
67181;SDS011;54114;53.524;49.396;2023-05-07T13:48:35;1.85;;;0.65;;
67181;SDS011;54114;53.524;49.396;2023-05-07T13:51:01;3.47;;;0.98;;
67181;SDS011;54114;53.524;49.396;2023-05-07T13:53:35;3.87;;;0.77;;
67181;SDS011;54114;53.524;49.396;2023-05-07T13:56:04;6.68;;;1.62;;
67181;SDS011;54114;53.524;49.396;2023-05-07T13:58:36;0.95;;;0.68;;
67181;SDS011;54114;53.524;49.396;2023-05-07T14:01:03;1.60;;;0.60;;
67181;SDS011;54114;53.524;49.396;2023-05-07T14:03:29;0.70;;;0.55;;
67181;SDS011;54114;53.524;49.396;2023-05-07T14:06:00;2.12;;;0.52;;
67181;SDS011;54114;53.524;49.396;2023-05-07T14:08:30;2.72;;;0.68;;
67181;SDS011;54114;53.524;49.396;2023-05-07T14:10:58;3.08;;;0.65;;
67181;SDS011;54114;53.524;49.396;2023-05-07T14:13:27;7.85;;;3.05;;
67181;SDS011;54114;53.524;49.396;2023-05-07T14:16:02;2.12;;;1.33;;
67181;SDS011;54114;53.524;49.396;2023-05-07T14:18:32;1.30;;;0.75;;
67181;SDS011;54114;53.524;49.396;2023-05-07T14:21:00;1.73;;;0.77;;
67181;SDS011;54114;53.524;49.396;2023-05-07T14:23:27;2.35;;;0.88;;
67181;SDS011;54114;53.524;49.396;2023-05-07T14:25:53;1.83;;;0.98;;
67181;SDS011;54114;53.524;49.396;2023-05-07T14:28:23;1.98;;;0.82;;
67181;SDS011;54114;53.524;49.396;2023-05-07T14:30:50;1.92;;;0.60;;
67181;SDS011;54114;53.524;49.396;2023-05-07T14:33:19;2.25;;;0.85;;
67181;SDS011;54114;53.524;49.396;2023-05-07T14:35:49;2.37;;;0.80;;
67181;SDS011;54114;53.524;49.396;2023-05-07T14:38:18;1.80;;;0.70;;
67181;SDS011;54114;53.524;49.396;2023-05-07T14:40:50;2.08;;;0.85;;
67181;SDS011;54114;53.524;49.396;2023-05-07T14:43:21;3.10;;;0.77;;
67181;SDS011;54114;53.524;49.396;2023-05-07T14:45:48;4.40;;;0.80;;
67181;SDS011;54114;53.524;49.396;2023-05-07T14:48:20;2.17;;;0.70;;
67181;SDS011;54114;53.524;49.396;2023-05-07T14:50:49;6.93;;;1.50;;
67181;SDS011;54114;53.524;49.396;2023-05-07T14:53:18;1.27;;;0.70;;
67181;SDS011;54114;53.524;49.396;2023-05-07T14:55:47;1.33;;;0.70;;
67181;SDS011;54114;53.524;49.396;2023-05-07T14:58:14;1.42;;;0.60;;
67181;SDS011;54114;53.524;49.396;2023-05-07T15:00:46;3.00;;;1.27;;
67181;SDS011;54114;53.524;49.396;2023-05-07T15:03:16;1.20;;;0.80;;